createdAt,value
2024-05-09T00:03:12.909Z,100142.47
2024-05-09T00:07:14.499Z,100147.28
2024-05-09T00:11:16.163Z,100150.41
2024-05-09T00:15:17.703Z,100147.88
2024-05-09T00:19:19.497Z,100142.00
2024-05-09T00:23:21.119Z,100134.50
2024-05-09T00:27:22.632Z,100153.34
2024-05-09T00:31:24.994Z,100142.06
2024-05-09T00:35:26.645Z,100144.34
2024-05-09T00:39:28.195Z,100157.31
2024-05-09T00:43:29.695Z,100152.50
2024-05-09T00:47:31.470Z,100147.31
2024-05-09T00:51:33.151Z,100145.59
2024-05-09T00:55:36.880Z,100135.97
2024-05-09T00:59:38.698Z,100138.22
2024-05-09T01:03:40.435Z,100136.94
2024-05-09T01:07:43.304Z,100134.00
2024-05-09T01:11:44.943Z,100146.19
2024-05-09T01:15:46.532Z,100137.00
2024-05-09T01:19:48.172Z,100144.91
2024-05-09T01:23:49.824Z,100142.00
2024-05-09T01:27:51.463Z,100147.00
2024-05-09T01:31:53.217Z,100150.53
2024-05-09T01:35:54.874Z,100142.72
2024-05-09T01:39:56.410Z,100141.94
2024-05-09T01:43:58.079Z,100143.81
2024-05-09T01:47:59.970Z,100152.75
2024-05-09T01:52:01.961Z,100149.81
2024-05-09T01:56:03.940Z,100150.84
2024-05-09T02:00:07.723Z,100156.88
2024-05-09T02:04:09.539Z,100151.75
2024-05-09T02:08:18.839Z,100145.44
2024-05-09T02:12:21.522Z,100150.34
2024-05-09T02:16:23.112Z,100151.13
2024-05-09T02:20:33.464Z,100155.69
2024-05-09T02:24:37.900Z,100161.66
2024-05-09T02:28:39.411Z,100162.56
2024-05-09T02:32:41.060Z,100162.22
2024-05-09T02:36:42.664Z,100159.38
2024-05-09T02:40:44.222Z,100149.44
2024-05-09T02:44:45.727Z,100148.28
2024-05-09T02:48:47.331Z,100136.75
2024-05-09T02:52:49.083Z,100140.16
2024-05-09T02:56:50.705Z,100141.53
2024-05-09T03:00:52.314Z,100150.31
2024-05-09T03:04:53.987Z,100149.41
2024-05-09T03:08:55.762Z,100150.09
2024-05-09T03:12:57.264Z,100148.84
2024-05-09T03:16:58.827Z,100159.13
2024-05-09T03:21:00.605Z,100148.28
2024-05-09T03:25:02.231Z,100160.03
2024-05-09T03:29:03.832Z,100149.28
2024-05-09T03:33:05.793Z,100151.47
2024-05-09T03:37:07.636Z,100138.88
2024-05-09T03:41:09.424Z,100154.97
2024-05-09T03:45:10.946Z,100153.03
2024-05-09T03:49:12.628Z,100154.59
2024-05-09T03:53:14.700Z,100155.63
2024-05-09T03:57:16.394Z,100157.75
2024-05-09T04:01:17.928Z,100150.53
2024-05-09T04:05:19.603Z,100162.09
2024-05-09T04:09:21.132Z,100156.50
2024-05-09T04:13:22.788Z,100160.13
2024-05-09T04:17:24.376Z,100167.50
2024-05-09T04:21:26.045Z,100158.56
2024-05-09T04:25:27.520Z,100159.75
2024-05-09T04:29:29.203Z,100164.25
2024-05-09T04:33:30.974Z,100171.94
2024-05-09T04:37:32.540Z,100173.69
2024-05-09T04:41:34.145Z,100172.03
2024-05-09T04:45:35.990Z,100179.28
2024-05-09T04:49:37.669Z,100189.38
2024-05-09T04:53:39.457Z,100189.41
2024-05-09T04:57:41.046Z,100189.44
2024-05-09T05:01:42.563Z,100193.44
2024-05-09T05:05:45.460Z,100185.88
2024-05-09T05:09:47.607Z,100188.19
2024-05-09T05:13:49.127Z,100197.81
2024-05-09T05:17:51.259Z,100199.09
2024-05-09T05:21:52.868Z,100182.72
2024-05-09T05:25:55.095Z,100198.63
2024-05-09T05:29:57.244Z,100188.72
2024-05-09T05:33:58.783Z,100190.59
2024-05-09T05:38:00.485Z,100195.72
2024-05-09T05:42:02.209Z,100187.91
2024-05-09T05:46:03.786Z,100188.19
2024-05-09T05:50:11.739Z,100193.66
2024-05-09T05:54:19.346Z,100204.09
2024-05-09T05:58:20.888Z,100204.50
2024-05-09T06:02:22.583Z,100207.81
2024-05-09T06:06:24.141Z,100210.94
2024-05-09T06:10:30.275Z,100209.38
2024-05-09T06:14:39.840Z,100219.56
2024-05-09T06:18:41.548Z,100224.13
2024-05-09T06:22:43.112Z,100220.59
2024-05-09T06:26:44.643Z,100218.19
2024-05-09T06:30:46.263Z,100221.78
2024-05-09T06:34:48.276Z,100225.88
2024-05-09T06:38:49.922Z,100225.50
2024-05-09T06:42:51.418Z,100218.94
2024-05-09T06:46:54.069Z,100229.91
2024-05-09T06:50:56.541Z,100231.94
2024-05-09T06:54:58.191Z,100225.38
2024-05-09T06:58:59.747Z,100233.34
2024-05-09T07:03:05.463Z,100239.13
2024-05-09T07:07:07.651Z,100231.38
2024-05-09T07:11:09.311Z,100224.16
2024-05-09T07:15:10.870Z,100229.53
2024-05-09T07:19:12.519Z,100228.63
2024-05-09T07:23:14.694Z,100225.88
2024-05-09T07:27:16.278Z,100215.94
2024-05-09T07:31:17.807Z,100229.16
2024-05-09T07:35:19.436Z,100227.94
2024-05-09T07:39:20.925Z,100231.34
2024-05-09T07:43:22.504Z,100228.56
2024-05-09T07:48:56.500Z,100222.00
2024-05-09T07:53:17.355Z,100226.22
2024-05-09T07:56:08.382Z,100217.66
2024-05-09T08:00:14.365Z,100213.34
2024-05-09T08:04:16.080Z,100207.09
2024-05-09T08:08:17.872Z,100214.88
2024-05-09T08:12:19.368Z,100202.53
2024-05-09T08:16:20.995Z,100204.66
2024-05-09T08:20:30.549Z,100205.84
2024-05-09T08:24:35.108Z,100206.31
2024-05-09T08:28:36.647Z,100200.56
2024-05-09T08:32:40.014Z,100200.16
2024-05-09T08:36:41.593Z,100209.44
2024-05-09T08:40:43.330Z,100205.75
2024-05-09T08:44:48.244Z,100201.66
2024-05-09T08:48:51.477Z,100210.41
2024-05-09T08:52:53.091Z,100208.06
2024-05-09T08:56:54.768Z,100216.72
2024-05-09T09:00:58.114Z,100207.75
2024-05-09T09:05:13.606Z,100193.41
2024-05-09T09:09:15.557Z,100199.38
2024-05-09T09:13:17.152Z,100206.31
2024-05-09T09:17:18.836Z,100209.09
2024-05-09T09:21:20.352Z,100207.00
2024-05-09T09:25:22.516Z,100199.44
2024-05-09T09:29:25.231Z,100207.22
2024-05-09T09:33:26.836Z,100208.34
2024-05-09T09:37:29.326Z,100202.28
2024-05-09T09:41:31.502Z,100206.66
2024-05-09T09:45:35.178Z,100203.16
2024-05-09T09:49:37.698Z,100220.97
2024-05-09T09:53:39.607Z,100211.94
2024-05-09T09:57:43.758Z,100201.22
2024-05-09T10:01:46.323Z,100207.22
2024-05-09T10:05:49.154Z,100209.69
2024-05-09T10:09:55.301Z,100209.88
2024-05-09T10:13:57.547Z,100201.16
2024-05-09T10:18:05.731Z,100202.69
2024-05-09T10:22:07.754Z,100197.56
2024-05-09T10:26:09.503Z,100197.56
2024-05-09T10:30:29.586Z,100186.63
2024-05-09T10:34:37.299Z,100197.19
2024-05-09T10:38:40.764Z,100190.75
2024-05-09T10:42:42.323Z,100191.31
2024-05-09T10:46:46.860Z,100196.00
2024-05-09T10:50:48.407Z,100182.59
2024-05-09T10:54:53.409Z,100168.31
2024-05-09T10:58:54.892Z,100176.47
2024-05-09T11:02:56.507Z,100165.91
2024-05-09T11:07:01.023Z,100176.34
2024-05-09T11:11:04.738Z,100163.41
2024-05-09T11:15:06.746Z,100163.97
2024-05-09T11:19:14.550Z,100161.69
2024-05-09T11:23:18.013Z,100162.16
2024-05-09T11:27:20.804Z,100161.25
2024-05-09T11:31:22.564Z,100149.81
2024-05-09T11:35:24.150Z,100147.63
2024-05-09T11:39:26.335Z,100146.44
2024-05-09T11:43:28.052Z,100143.75
2024-05-09T11:47:29.878Z,100124.34
2024-05-09T11:51:31.449Z,100141.81
2024-05-09T11:55:33.140Z,100127.56
2024-05-09T11:59:34.791Z,100124.91
2024-05-09T12:03:36.391Z,100133.16
2024-05-09T12:07:38.121Z,100129.78
2024-05-09T12:11:39.712Z,100131.56
2024-05-09T12:15:41.476Z,100131.56
2024-05-09T12:19:43.066Z,100123.84
2024-05-09T12:23:44.698Z,100116.88
2024-05-09T12:27:46.328Z,100121.72
2024-05-09T12:31:47.979Z,100108.59
2024-05-09T12:35:51.207Z,100111.47
2024-05-09T12:39:52.998Z,100102.59
2024-05-09T12:43:54.657Z,100109.22
2024-05-09T12:47:56.356Z,100089.19
2024-05-09T12:51:58.079Z,100088.25
2024-05-09T12:56:02.379Z,100089.59
2024-05-09T13:00:09.355Z,100088.59
2024-05-09T13:04:13.450Z,100082.75
2024-05-09T13:08:15.490Z,100073.84
2024-05-09T13:12:16.997Z,100062.66
2024-05-09T13:16:18.730Z,100060.25
2024-05-09T13:20:29.145Z,100057.84
2024-05-09T13:24:34.524Z,100056.34
2024-05-09T13:28:36.088Z,100057.84
2024-05-09T13:32:37.806Z,100072.94
2024-05-09T13:36:39.455Z,100061.88
2024-05-09T13:40:41.103Z,100069.94
2024-05-09T13:44:42.778Z,100051.09
2024-05-09T13:48:44.495Z,100052.31
2024-05-09T13:52:46.033Z,100042.28
2024-05-09T13:56:47.571Z,100041.13
2024-05-09T14:00:49.642Z,100034.47
2024-05-09T14:04:51.514Z,100029.38
2024-05-09T14:08:53.278Z,100034.47
2024-05-09T14:12:54.887Z,100032.25
2024-05-09T14:16:57.466Z,100025.25
2024-05-09T14:20:59.128Z,100015.16
2024-05-09T14:25:00.993Z,100009.09
2024-05-09T14:29:03.448Z,100003.34
2024-05-09T14:33:06.771Z,99997.41
2024-05-09T14:37:09.371Z,100009.88
2024-05-09T14:41:11.069Z,100001.53
2024-05-09T14:45:12.694Z,99991.34
2024-05-09T14:49:14.414Z,99988.88
2024-05-09T14:53:16.065Z,99986.50
2024-05-09T14:57:17.613Z,99993.41
2024-05-09T15:01:19.274Z,99974.81
2024-05-09T15:05:20.922Z,99968.22
2024-05-09T15:09:22.624Z,99967.69
2024-05-09T15:13:24.652Z,99972.25
2024-05-09T15:17:26.654Z,99967.41
2024-05-09T15:21:28.398Z,99958.81
2024-05-09T15:25:30.023Z,99948.75
2024-05-09T15:29:31.738Z,99951.19
2024-05-09T15:33:33.441Z,99942.34
2024-05-09T15:37:35.262Z,99948.84
2024-05-09T15:41:36.778Z,99942.66
2024-05-09T15:45:39.273Z,99939.56
2024-05-09T15:49:41.254Z,99924.69
2024-05-09T15:53:42.862Z,99937.47
2024-05-09T15:57:45.031Z,99931.13
2024-05-09T16:01:46.775Z,99926.56
2024-05-09T16:05:48.791Z,99912.69
2024-05-09T16:09:50.664Z,99919.34
2024-05-09T16:13:52.251Z,99906.47
2024-05-09T16:17:53.979Z,99909.28
2024-05-09T16:21:55.599Z,99897.91
2024-05-09T16:25:57.354Z,99899.53
2024-05-09T16:29:58.883Z,99895.81
2024-05-09T16:34:00.566Z,99909.13
2024-05-09T16:38:03.304Z,99897.22
2024-05-09T16:42:05.199Z,99897.47
2024-05-09T16:46:07.269Z,99896.34
2024-05-09T16:50:10.794Z,99894.72
2024-05-09T16:54:14.328Z,99892.88
2024-05-09T16:58:16.015Z,99894.75
2024-05-09T17:02:17.996Z,99894.53
2024-05-09T17:06:19.786Z,99888.63
2024-05-09T17:10:29.134Z,99891.94
2024-05-09T17:14:33.866Z,99885.16
2024-05-09T17:18:35.904Z,99878.41
2024-05-09T17:22:37.547Z,99888.69
2024-05-09T17:26:39.106Z,99888.66
2024-05-09T17:30:42.067Z,99880.66
2024-05-09T17:34:44.372Z,99882.91
2024-05-09T17:38:46.101Z,99869.09
2024-05-09T17:42:47.643Z,99879.97
2024-05-09T17:46:49.219Z,99880.78
2024-05-09T17:50:50.759Z,99884.09
2024-05-09T17:54:52.324Z,99880.25
2024-05-09T17:58:53.990Z,99883.56
2024-05-09T18:02:55.558Z,99877.75
2024-05-09T18:06:57.170Z,99870.28
2024-05-09T18:10:58.821Z,99872.38
2024-05-09T18:15:00.524Z,99870.63
2024-05-09T18:19:02.165Z,99865.56
2024-05-09T18:23:03.907Z,99869.03
2024-05-09T18:27:05.928Z,99867.50
2024-05-09T18:31:07.493Z,99870.38
2024-05-09T18:35:09.192Z,99868.78
2024-05-09T18:39:11.138Z,99862.97
2024-05-09T18:43:12.691Z,99863.38
2024-05-09T18:47:16.746Z,99869.34
2024-05-09T18:51:20.840Z,99870.34
2024-05-09T18:55:22.452Z,99875.75
2024-05-09T18:59:24.065Z,99874.78
2024-05-09T19:03:25.963Z,99883.72
2024-05-09T19:07:28.027Z,99890.56
2024-05-09T19:11:30.821Z,99886.59
2024-05-09T19:15:32.431Z,99888.94
2024-05-09T19:19:34.401Z,99886.13
2024-05-09T19:23:38.395Z,99878.56
2024-05-09T19:27:44.533Z,99878.47
2024-05-09T19:31:46.046Z,99882.81
2024-05-09T19:35:47.692Z,99889.16
2024-05-09T19:39:49.203Z,99880.88
2024-05-09T19:43:50.774Z,99890.47
2024-05-09T19:47:52.601Z,99892.97
2024-05-09T19:51:54.333Z,99886.81
2024-05-09T19:55:55.922Z,99891.31
2024-05-09T19:59:57.497Z,99893.88
2024-05-09T20:03:59.345Z,99893.63
2024-05-09T20:08:01.082Z,99892.69
2024-05-09T20:12:02.657Z,99900.81
2024-05-09T20:16:04.622Z,99899.53
2024-05-09T20:20:11.349Z,99896.19
2024-05-09T20:24:18.176Z,99905.00
2024-05-09T20:28:19.774Z,99895.50
2024-05-09T20:32:21.456Z,99898.91
2024-05-09T20:36:23.166Z,99905.47
2024-05-09T20:40:29.321Z,99905.03
2024-05-09T20:44:35.147Z,99900.66
2024-05-09T20:48:36.912Z,99893.09
2024-05-09T20:52:38.514Z,99899.66
2024-05-09T20:56:40.031Z,99904.53
2024-05-09T21:00:44.492Z,99911.00
2024-05-09T21:04:47.665Z,99911.59
2024-05-09T21:08:49.299Z,99912.03
2024-05-09T21:12:51.303Z,99905.38
2024-05-09T21:16:52.945Z,99908.69
2024-05-09T21:20:54.510Z,99907.53
2024-05-09T21:24:56.087Z,99906.19
2024-05-09T21:28:57.689Z,99904.38
2024-05-09T21:32:59.676Z,99906.50
2024-05-09T21:37:01.416Z,99904.75
2024-05-09T21:41:03.032Z,99913.88
2024-05-09T21:45:04.887Z,99909.69
2024-05-09T21:49:06.562Z,99908.53
2024-05-09T21:53:08.359Z,99913.13
2024-05-09T21:57:10.209Z,99914.09
2024-05-09T22:01:11.876Z,99912.66
2024-05-09T22:05:13.898Z,99909.59
2024-05-09T22:09:15.539Z,99910.03
2024-05-09T22:13:17.288Z,99900.81
2024-05-09T22:17:18.937Z,99903.31
2024-05-09T22:21:20.631Z,99907.38
2024-05-09T22:25:22.876Z,99912.19
2024-05-09T22:29:24.369Z,99909.44
2024-05-09T22:33:25.959Z,99916.09
2024-05-09T22:37:27.528Z,99908.13
2024-05-09T22:41:29.013Z,99909.22
2024-05-09T22:45:30.580Z,99905.41
2024-05-09T22:49:32.120Z,99908.75
2024-05-09T22:53:33.774Z,99905.41
2024-05-09T22:57:35.414Z,99900.88
2024-05-09T23:01:37.066Z,99900.75
2024-05-09T23:05:38.754Z,99892.63
2024-05-09T23:09:40.441Z,99895.44
2024-05-09T23:13:42.017Z,99898.06
2024-05-09T23:17:43.698Z,99897.34
2024-05-09T23:21:45.291Z,99876.31
2024-05-09T23:25:49.385Z,99894.94
2024-05-09T23:29:51.396Z,99884.56
2024-05-09T23:33:53.812Z,99886.75
2024-05-09T23:37:55.986Z,99882.06
2024-05-09T23:41:57.835Z,99873.41
2024-05-09T23:45:59.643Z,99874.88
2024-05-09T23:50:03.702Z,99864.91
2024-05-09T23:54:05.759Z,99877.75
2024-05-09T23:58:07.868Z,99872.66
